Terminal Aerodrome Forecast
Issued by NWS

Home | Current Version | Previous Version | Text Only | Print | Product List | Glossary On
Versions: 1 2 3 4 5 6 7 8 9 10 11 12 13 14 15
000
FTUS42 KTAE 210500
TAFVLD
TAF
KVLD 210521Z 2106/2206 00000KT P6SM SCT050
      TEMPO 2108/2112 5SM BR
     FM211600 35004KT P6SM SKC=

USA.gov is the U.S. government's official web portal to all federal, state and local government web resources and services.